Time;durP1;ratioP1;P1;durP2;ratioP2;P2;SDS_P1;SDS_P2;PMS_P1;PMS_P2;Temp;Humidity;BMP_temperature;BMP_pressure;BME280_temperature;BME280_humidity;BME280_pressure;Samples;Min_cycle;Max_cycle;Signal;HPM_P1;HPM_P2
2023/02/10 00:01:46;;;;;;;;;;;;;;;;;;;;;
2023/02/10 00:07:42;;;;;;;0.00;0.00;;;;;;;-0.47;89.72;102385.63;5748529;24;20038;-76
2023/02/10 00:10:38;;;;;;;;;;;;;;;;;;;;;
2023/02/10 00:14:05;;;;;;;;;;;;;;;;;;;;;
2023/02/10 00:17:30;;;;;;;;;;;;;;;;;;;;;
2023/02/10 00:20:38;;;;;;;;;;;;;;;;;;;;;
2023/02/10 00:23:45;;;;;;;0.00;0.00;;;;;;;-0.55;90.07;102389.88;6203595;23;20024;-76
2023/02/10 00:26:40;;;;;;;0.10;0.10;;;;;;;-0.36;89.52;102423.94;6168243;23;20031;-76
2023/02/10 00:29:06;;;;;;;0.10;0.10;;;;;;;-0.38;90.14;102415.19;6083133;23;20006;-79
2023/02/10 00:35:41;;;;;;;0.00;0.00;;;;;;;-0.47;90.48;102391.00;5975377;24;20027;-79
2023/02/10 00:41:37;;;;;;;0.00;0.00;;;;;;;-0.38;89.63;102422.38;5989443;24;20007;-78
2023/02/10 00:44:09;;;;;;;0.00;0.00;;;;;;;-0.58;89.55;102398.25;6016761;23;20011;-77
2023/02/10 00:47:00;;;;;;;;;;;;;;;;;;;;;
2023/02/10 00:53:28;;;;;;;;;;;;;;;;;;;;;
2023/02/10 00:59:20;;;;;;;0.10;0.10;;;;;;;-0.99;90.35;102392.19;6115393;23;20104;-78
2023/02/10 01:01:51;;;;;;;0.10;0.10;;;;;;;-1.17;90.41;102377.78;6089493;23;20014;-77
2023/02/10 01:14:53;;;;;;;;;;;;;;;;;;;;;
2023/02/10 01:17:50;;;;;;;0.00;0.00;;;;;;;-1.24;89.43;102385.56;6089372;23;19929;-76
2023/02/10 01:20:31;;;;;;;0.00;0.00;;;;;;;-1.06;90.49;102412.56;6086419;23;20011;-77
2023/02/10 01:23:14;;;;;;;;;;;;;;;;;;;;;
2023/02/10 01:25:40;;;;;;;0.00;0.00;;;;;;;-1.19;90.11;102391.34;6203943;23;20039;-78
2023/02/10 01:28:06;;;;;;;0.00;0.00;;;;;;;-1.05;90.71;102414.25;6198438;23;20012;-78
2023/02/10 01:30:35;;;;;;;0.10;0.10;;;;;;;-1.27;90.38;102377.75;6200957;23;20012;-78
2023/02/10 01:33:01;;;;;;;0.10;0.10;;;;;;;-1.27;90.12;102378.63;6198804;23;20013;-77
2023/02/10 01:35:26;;;;;;;0.03;0.03;;;;;;;-1.11;90.88;102398.69;6199426;23;20019;-77
2023/02/10 01:38:09;;;;;;;0.05;0.05;;;;;;;-1.29;89.84;102375.22;6199425;23;20005;-78
2023/02/10 01:40:37;;;;;;;0.00;0.00;;;;;;;-1.15;89.95;102408.03;6198396;23;20059;-77
2023/02/10 01:43:23;;;;;;;;;;;;;;;;;;;;;
2023/02/10 01:45:49;;;;;;;0.00;0.00;;;;;;;-1.29;90.39;102396.69;6224712;23;20017;-77
2023/02/10 01:48:15;;;;;;;0.00;0.00;;;;;;;-1.32;90.39;102399.66;6173322;23;20016;-77
2023/02/10 01:50:57;;;;;;;0.08;0.08;;;;;;;-1.23;90.55;102423.00;6175413;23;19992;-77
2023/02/10 01:53:25;;;;;;;0.00;0.00;;;;;;;-1.42;90.56;102396.09;6196900;23;20009;-78
2023/02/10 01:55:56;;;;;;;0.00;0.00;;;;;;;-1.34;89.95;102412.38;6201230;23;20008;-78
2023/02/10 01:58:34;;;;;;;0.10;0.10;;;;;;;-1.64;90.34;102367.69;6201260;23;20052;-77
2023/02/10 02:01:03;;;;;;;0.08;0.08;;;;;;;-1.44;89.54;102404.28;6195346;23;20009;-78
2023/02/10 02:03:41;;;;;;;;;;;;;;;;;;;;;
2023/02/10 02:11:39;;;;;;;0.00;0.00;;;;;;;-1.65;90.87;102380.25;6077036;23;20010;-77
2023/02/10 02:17:06;;;;;;;0.10;0.10;;;;;;;-1.54;90.19;102407.97;6123670;23;20057;-80
2023/02/10 02:51:24;;;;;;;0.00;0.00;;;;;;;-1.96;91.26;102419.66;6188361;23;20025;-79
2023/02/10 02:54:14;;;;;;;0.10;0.10;;;;;;;-1.97;91.65;102432.22;6189192;23;20475;-80
2023/02/10 02:57:07;;;;;;;0.00;0.00;;;;;;;-1.99;92.15;102423.44;6194241;23;20004;-80
2023/02/10 03:00:05;;;;;;;0.00;0.00;;;;;;;-2.10;91.21;102391.38;6163191;23;20020;-79
2023/02/10 03:02:34;;;;;;;0.00;0.00;;;;;;;-2.01;92.06;102412.03;6157519;23;20005;-86
2023/02/10 03:05:02;;;;;;;0.10;0.10;;;;;;;-2.08;92.11;102405.50;6165356;23;20054;-79
2023/02/10 03:07:28;;;;;;;0.00;0.00;;;;;;;-2.13;91.92;102402.38;6165281;23;20005;-78
2023/02/10 03:09:53;;;;;;;0.00;0.00;;;;;;;-2.09;91.78;102413.69;6140447;23;20035;-79
2023/02/10 03:12:19;;;;;;;0.00;0.00;;;;;;;-2.01;91.35;102422.75;6166301;23;20012;-77
2023/02/10 03:14:44;;;;;;;0.10;0.10;;;;;;;-2.17;91.43;102387.53;6159633;23;20095;-80
2023/02/10 03:17:09;;;;;;;0.03;0.03;;;;;;;-1.99;92.37;102415.41;6117127;23;19993;-80
2023/02/10 03:19:35;;;;;;;0.00;0.00;;;;;;;-2.06;92.41;102402.69;6163627;23;20282;-80
2023/02/10 03:22:01;;;;;;;0.00;0.00;;;;;;;-2.05;91.52;102413.28;6141190;23;20016;-80
2023/02/10 03:24:26;;;;;;;0.00;0.00;;;;;;;-2.22;91.53;102384.41;6160663;23;20001;-76
2023/02/10 03:26:52;;;;;;;0.00;0.00;;;;;;;-2.22;91.41;102392.44;6190602;23;20399;-75
2023/02/10 03:29:17;;;;;;;0.10;0.10;;;;;;;-2.18;92.53;102404.59;6140647;23;20008;-73
2023/02/10 03:31:43;;;;;;;0.10;0.10;;;;;;;-2.19;92.09;102392.16;6139799;23;20013;-74
2023/02/10 03:34:09;;;;;;;0.00;0.00;;;;;;;-2.14;91.69;102404.19;6164364;23;20056;-75
2023/02/10 03:36:35;;;;;;;0.10;0.10;;;;;;;-2.10;93.07;102402.13;6137391;23;20005;-76
2023/02/10 03:39:02;;;;;;;0.10;0.10;;;;;;;-2.08;92.18;102405.50;6135738;23;20088;-76
2023/02/10 03:41:28;;;;;;;0.00;0.00;;;;;;;-2.13;92.51;102386.28;6164121;23;20064;-75
2023/02/10 03:43:54;;;;;;;0.10;0.10;;;;;;;-2.13;92.71;102391.66;6162809;23;20757;-75
2023/02/10 03:46:19;;;;;;;0.00;0.00;;;;;;;-2.18;91.84;102383.16;6143535;23;20017;-76
2023/02/10 03:48:44;;;;;;;0.00;0.00;;;;;;;-2.24;92.22;102372.97;6164117;23;20041;-74
2023/02/10 03:51:11;;;;;;;0.00;0.00;;;;;;;-2.23;93.17;102374.66;6137830;23;20009;-75
2023/02/10 03:53:40;;;;;;;0.00;0.00;;;;;;;-2.13;93.42;102378.25;6133011;23;20013;-74
2023/02/10 03:56:15;;;;;;;0.00;0.00;;;;;;;-2.12;93.14;102363.84;6151192;23;20020;-77
2023/02/10 03:58:41;;;;;;;0.10;0.10;;;;;;;-2.15;92.57;102356.06;6157092;23;20424;-76
2023/02/10 04:01:16;;;;;;;0.00;0.00;;;;;;;-2.08;93.21;102362.59;6132016;23;20065;-76
2023/02/10 04:03:42;;;;;;;0.00;0.00;;;;;;;-2.03;92.11;102368.41;6156657;23;20084;-75
2023/02/10 04:06:08;;;;;;;0.00;0.00;;;;;;;-2.05;92.31;102375.72;6156196;23;20002;-76
2023/02/10 04:08:35;;;;;;;0.00;0.00;;;;;;;-2.07;93.23;102369.66;6158970;23;20013;-76
2023/02/10 04:11:03;;;;;;;0.10;0.10;;;;;;;-2.10;93.26;102361.91;6155124;23;19993;-76
2023/02/10 04:13:42;;;;;;;0.10;0.10;;;;;;;-2.08;92.68;102367.97;6160777;23;20002;-78
2023/02/10 04:16:19;;;;;;;0.00;0.00;;;;;;;-2.07;93.40;102356.25;6158020;23;20096;-78
2023/02/10 04:18:47;;;;;;;0.10;0.10;;;;;;;-2.14;93.32;102357.78;6162191;23;20096;-79
2023/02/10 04:21:13;;;;;;;0.00;0.00;;;;;;;-2.14;93.38;102352.41;6156759;23;20024;-76
2023/02/10 04:23:38;;;;;;;0.10;0.10;;;;;;;-2.02;94.86;102356.69;6136651;23;20076;-76
2023/02/10 04:26:04;;;;;;;0.10;0.10;;;;;;;-1.87;94.27;102375.09;6152551;23;20372;-75
2023/02/10 04:28:30;;;;;;;0.10;0.10;;;;;;;-1.85;94.83;102375.81;6155795;23;20002;-76
2023/02/10 04:30:59;;;;;;;0.10;0.10;;;;;;;-1.99;94.89;102356.41;6155905;23;20056;-76
2023/02/10 04:33:25;;;;;;;0.00;0.00;;;;;;;-2.02;95.21;102366.56;6166031;23;20001;-78
2023/02/10 04:35:52;;;;;;;0.00;0.00;;;;;;;-2.01;95.55;102382.53;6154759;23;20009;-77
2023/02/10 04:38:18;;;;;;;0.00;0.00;;;;;;;-2.00;95.16;102397.63;6161138;23;20053;-75
2023/02/10 04:40:44;;;;;;;0.00;0.00;;;;;;;-2.06;95.88;102387.44;6152414;23;19998;-76
2023/02/10 04:43:13;;;;;;;0.00;0.00;;;;;;;-2.07;96.57;102395.59;6132157;23;20424;-76
2023/02/10 04:45:39;;;;;;;0.10;0.10;;;;;;;-2.14;96.34;102396.16;6154675;23;20139;-76
2023/02/10 04:48:05;;;;;;;0.00;0.00;;;;;;;-2.24;96.83;102395.25;6154775;23;20017;-77
2023/02/10 04:50:33;;;;;;;0.00;0.00;;;;;;;-2.41;96.55;102379.78;6155709;23;20073;-76
2023/02/10 04:52:58;;;;;;;0.00;0.00;;;;;;;-2.42;96.59;102387.00;6154657;23;19998;-76
2023/02/10 04:55:24;;;;;;;0.00;0.00;;;;;;;-2.48;96.86;102382.16;6157738;23;20012;-76
2023/02/10 04:57:52;;;;;;;0.10;0.10;;;;;;;-2.43;96.66;102393.31;6151543;23;19998;-77
2023/02/10 05:00:18;;;;;;;0.00;0.00;;;;;;;-2.46;96.44;102397.09;6156740;23;20012;-75
2023/02/10 05:02:44;;;;;;;0.00;0.00;;;;;;;-2.53;97.10;102384.38;6130212;23;20073;-76
2023/02/10 05:05:11;;;;;;;0.10;0.10;;;;;;;-2.30;97.19;102395.78;6157646;23;20443;-75
2023/02/10 05:07:37;;;;;;;0.10;0.10;;;;;;;-2.13;97.31;102397.84;6156983;23;20005;-76
2023/02/10 05:10:02;;;;;;;0.10;0.10;;;;;;;-2.06;97.23;102390.09;6152151;23;20016;-76
2023/02/10 05:12:28;;;;;;;0.00;0.00;;;;;;;-1.94;96.06;102391.72;6159347;23;20396;-76
2023/02/10 05:14:54;;;;;;;0.00;0.00;;;;;;;-1.92;96.56;102382.72;6157094;23;20001;-79
2023/02/10 05:17:19;;;;;;;0.10;0.10;;;;;;;-1.81;96.75;102390.63;6186197;23;20010;-77
2023/02/10 05:19:45;;;;;;;0.00;0.00;;;;;;;-1.90;96.59;102386.09;6156131;23;20009;-75
2023/02/10 05:22:10;;;;;;;0.10;0.10;;;;;;;-1.97;96.55;102397.38;6158885;23;20033;-80
2023/02/10 05:24:35;;;;;;;0.00;0.00;;;;;;;-2.11;96.28;102393.19;6184561;23;20006;-79
2023/02/10 05:27:04;;;;;;;0.00;0.00;;;;;;;-2.23;97.42;102383.56;6161839;23;20009;-78
2023/02/10 05:29:29;;;;;;;0.00;0.00;;;;;;;-2.20;97.63;102388.66;6140468;23;20009;-78
2023/02/10 05:31:55;;;;;;;0.00;0.00;;;;;;;-2.32;97.30;102382.53;6154805;23;20009;-78
2023/02/10 05:34:28;;;;;;;0.00;0.00;;;;;;;-2.46;97.10;102367.63;6161090;23;20013;-78
2023/02/10 05:37:06;;;;;;;;;;;;;;;;;;;;;
2023/02/10 05:39:32;;;;;;;0.10;0.10;;;;;;;-2.46;97.51;102373.00;6163545;23;20040;-79
2023/02/10 05:42:09;;;;;;;0.00;0.00;;;;;;;-2.37;97.58;102384.75;6184091;23;19998;-76
2023/02/10 05:44:34;;;;;;;0.00;0.00;;;;;;;-2.42;97.83;102370.91;6164233;23;20087;-74
2023/02/10 05:47:00;;;;;;;0.10;0.10;;;;;;;-2.55;97.39;102356.88;6161302;23;20001;-74
2023/02/10 05:49:25;;;;;;;0.00;0.00;;;;;;;-2.48;97.23;102393.72;6157713;23;20020;-76
2023/02/10 05:51:53;;;;;;;0.00;0.00;;;;;;;-2.55;97.84;102386.34;6162456;23;20380;-76
2023/02/10 05:54:18;;;;;;;0.10;0.10;;;;;;;-2.53;98.39;102400.44;6159111;23;20001;-75
2023/02/10 05:56:46;;;;;;;0.00;0.00;;;;;;;-2.58;97.67;102397.34;6164186;23;20424;-77
2023/02/10 05:59:14;;;;;;;0.10;0.10;;;;;;;-2.77;97.33;102390.84;6158867;23;20063;-76
2023/02/10 06:01:40;;;;;;;0.10;0.10;;;;;;;-2.83;97.00;102383.34;6164022;23;20013;-75
2023/02/10 06:04:17;;;;;;;0.10;0.10;;;;;;;-2.90;97.84;102388.34;6159500;23;20502;-75
2023/02/10 06:06:42;;;;;;;0.00;0.00;;;;;;;-2.82;97.58;102396.59;6160565;23;20004;-75
2023/02/10 06:09:12;;;;;;;0.10;0.10;;;;;;;-2.83;97.26;102399.41;6139389;23;20004;-75
2023/02/10 06:11:38;;;;;;;0.00;0.00;;;;;;;-2.79;98.01;102405.34;6139888;23;20016;-75
2023/02/10 06:14:04;;;;;;;0.00;0.00;;;;;;;-2.78;97.21;102413.25;6193198;23;20009;-76
2023/02/10 06:16:29;;;;;;;0.00;0.00;;;;;;;-2.73;97.16;102411.03;6134905;23;20019;-75
2023/02/10 06:18:55;;;;;;;0.00;0.00;;;;;;;-2.77;97.27;102406.91;6140742;23;20095;-75
2023/02/10 06:21:22;;;;;;;0.00;0.00;;;;;;;-2.74;97.18;102406.66;6137917;23;20009;-75
2023/02/10 06:23:48;;;;;;;0.00;0.00;;;;;;;-2.73;97.90;102405.69;6140693;23;20011;-76
2023/02/10 06:26:13;;;;;;;0.03;0.03;;;;;;;-2.72;97.54;102412.72;6163434;23;20004;-77
2023/02/10 06:28:39;;;;;;;0.00;0.00;;;;;;;-2.76;97.50;102411.31;6140168;23;20021;-77
2023/02/10 06:31:04;;;;;;;0.10;0.10;;;;;;;-2.87;97.54;102409.50;6141298;23;20005;-77
2023/02/10 06:33:30;;;;;;;0.00;0.00;;;;;;;-2.95;97.48;102421.84;6163412;23;20093;-77
2023/02/10 06:35:55;;;;;;;0.00;0.00;;;;;;;-3.08;98.13;102417.53;6133505;23;20020;-77
2023/02/10 06:38:21;;;;;;;0.10;0.10;;;;;;;-3.10;97.87;102408.75;6136282;23;20012;-77
2023/02/10 06:40:48;;;;;;;0.10;0.10;;;;;;;-3.18;97.97;102411.22;6136210;23;20013;-77
2023/02/10 06:43:14;;;;;;;0.00;0.00;;;;;;;-3.22;98.17;102404.41;6114682;23;20017;-78
2023/02/10 06:45:39;;;;;;;0.10;0.10;;;;;;;-3.28;98.68;102399.59;6163313;23;20066;-79
2023/02/10 06:48:05;;;;;;;0.10;0.10;;;;;;;-3.30;98.55;102398.84;6114434;23;20009;-78
2023/02/10 06:50:33;;;;;;;0.10;0.10;;;;;;;-3.33;98.47;102391.91;6161257;23;20016;-79
2023/02/10 06:53:05;;;;;;;0.10;0.10;;;;;;;-3.23;98.37;102389.34;6164982;23;20012;-79
2023/02/10 06:55:30;;;;;;;0.00;0.00;;;;;;;-3.15;98.75;102378.84;6185812;23;20002;-78
2023/02/10 06:58:01;;;;;;;0.00;0.00;;;;;;;-3.03;98.66;102366.28;6153512;23;20040;-79
2023/02/10 07:00:27;;;;;;;0.08;0.08;;;;;;;-2.84;99.10;102381.63;6164705;23;19993;-79
2023/02/10 07:02:52;;;;;;;0.00;0.00;;;;;;;-2.55;98.98;102407.78;6157924;23;20033;-79
2023/02/10 07:05:18;;;;;;;0.00;0.00;;;;;;;-2.44;99.09;102407.69;6139595;23;20009;-78
2023/02/10 07:07:44;;;;;;;0.00;0.00;;;;;;;-2.45;100.00;102381.91;6162123;23;20088;-81
2023/02/10 07:10:11;;;;;;;0.05;0.05;;;;;;;-2.26;99.85;102407.09;6140137;23;20016;-76
2023/02/10 07:12:39;;;;;;;0.00;0.00;;;;;;;-2.22;100.00;102392.44;6139988;23;20035;-77
2023/02/10 07:15:08;;;;;;;0.00;0.00;;;;;;;-2.16;100.00;102395.44;6164958;23;20013;-77
2023/02/10 07:17:35;;;;;;;0.00;0.00;;;;;;;-2.02;100.00;102415.69;6141911;23;20447;-80
2023/02/10 07:20:01;;;;;;;0.08;0.08;;;;;;;-2.15;100.00;102399.81;6167641;23;20005;-78
2023/02/10 07:22:35;;;;;;;0.10;0.10;;;;;;;-2.04;100.00;102425.69;6138746;23;20007;-79
2023/02/10 07:25:01;;;;;;;0.10;0.10;;;;;;;-2.08;100.00;102418.06;6167936;23;20096;-81
2023/02/10 07:27:27;;;;;;;0.10;0.10;;;;;;;-2.07;100.00;102407.19;6121317;23;20024;-80
2023/02/10 07:29:53;;;;;;;0.10;0.10;;;;;;;-2.07;100.00;102401.84;6146755;23;20005;-79
2023/02/10 07:32:18;;;;;;;0.00;0.00;;;;;;;-2.06;100.00;102406.19;6136511;23;20001;-80
2023/02/10 07:34:44;;;;;;;0.00;0.00;;;;;;;-2.05;100.00;102413.28;6162738;23;20005;-76
2023/02/10 07:37:09;;;;;;;0.00;0.00;;;;;;;-2.03;100.00;102421.19;6159974;23;20048;-76
2023/02/10 07:39:35;;;;;;;0.00;0.00;;;;;;;-2.12;100.00;102410.28;6165175;23;20859;-76
2023/02/10 07:42:00;;;;;;;0.00;0.00;;;;;;;-1.85;100.00;102453.59;6137079;23;20009;-76
2023/02/10 07:44:26;;;;;;;0.00;0.00;;;;;;;-1.93;100.00;102430.13;6188289;23;20007;-76
2023/02/10 07:46:54;;;;;;;0.00;0.00;;;;;;;-1.88;100.00;102443.13;6188738;23;20424;-76
2023/02/10 07:49:29;;;;;;;0.00;0.00;;;;;;;-1.93;100.00;102424.75;6135125;23;20108;-78
2023/02/10 07:51:57;;;;;;;0.00;0.00;;;;;;;-1.73;100.00;102452.50;6118666;23;20507;-81
2023/02/10 07:54:23;;;;;;;0.08;0.08;;;;;;;-1.83;100.00;102425.63;6160251;23;20013;-78
2023/02/10 07:56:51;;;;;;;0.00;0.00;;;;;;;-1.69;100.00;102445.91;6198218;23;20016;-79
2023/02/10 07:59:26;;;;;;;0.00;0.00;;;;;;;-1.77;100.00;102441.22;6189493;23;20017;-80
2023/02/10 08:01:54;;;;;;;0.00;0.00;;;;;;;-1.82;100.00;102434.56;6193139;23;20009;-79
2023/02/10 08:04:29;;;;;;;0.00;0.00;;;;;;;-1.54;100.00;102464.31;6164827;23;20045;-75
2023/02/10 08:06:55;;;;;;;0.00;0.00;;;;;;;-1.51;100.00;102466.72;6188535;23;20001;-77
2023/02/10 08:09:21;;;;;;;0.00;0.00;;;;;;;-1.63;100.00;102437.28;6159439;23;20013;-77
2023/02/10 08:11:50;;;;;;;0.00;0.00;;;;;;;-1.61;99.67;102432.66;6163628;23;20327;-77
2023/02/10 08:14:16;;;;;;;0.00;0.00;;;;;;;-1.44;100.00;102454.44;6163953;23;20099;-77
2023/02/10 08:16:44;;;;;;;0.00;0.00;;;;;;;-1.30;99.55;102464.81;6137278;23;20369;-77
2023/02/10 08:19:10;;;;;;;0.10;0.10;;;;;;;-1.29;99.02;102450.38;6162106;23;20008;-79
2023/02/10 08:21:35;;;;;;;0.00;0.00;;;;;;;-1.14;98.61;102466.97;6138276;23;20120;-77
2023/02/10 08:24:01;;;;;;;0.10;0.10;;;;;;;-1.16;97.57;102454.66;6190734;23;19989;-76
2023/02/10 08:26:42;;;;;;;;;;;;;;;;;;;;;
2023/02/10 08:29:26;;;;;;;0.00;0.00;;;;;;;-0.87;97.21;102462.75;6190998;23;20013;-76
2023/02/10 08:31:58;;;;;;;0.00;0.00;;;;;;;-0.80;96.95;102455.81;6158860;23;20009;-77
2023/02/10 08:34:24;;;;;;;0.00;0.00;;;;;;;-0.52;96.69;102474.78;6140583;23;20021;-77
2023/02/10 08:36:51;;;;;;;0.00;0.00;;;;;;;-0.40;96.19;102446.72;6111966;23;20004;-77
2023/02/10 08:39:17;;;;;;;0.00;0.00;;;;;;;-0.10;95.87;102465.50;6159395;23;20008;-78
2023/02/10 08:41:50;;;;;;;0.00;0.00;;;;;;;0.16;95.26;102473.78;6161146;23;20005;-77
2023/02/10 08:44:28;;;;;;;;;;;;;;;;;;;;;
2023/02/10 08:46:54;;;;;;;0.00;0.00;;;;;;;0.95;93.27;102474.22;6178478;23;20802;-79
2023/02/10 08:49:19;;;;;;;0.10;0.10;;;;;;;1.94;92.58;102483.19;6158140;23;20104;-77
2023/02/10 08:51:45;;;;;;;0.10;0.10;;;;;;;3.35;88.57;102486.28;6159431;23;20005;-77
2023/02/10 08:54:15;;;;;;;0.00;0.00;;;;;;;4.78;81.11;102496.53;6132568;23;20909;-78
2023/02/10 08:56:44;;;;;;;0.10;0.10;;;;;;;5.68;76.21;102478.81;6163029;23;20013;-78
2023/02/10 08:59:10;;;;;;;0.00;0.00;;;;;;;6.59;71.60;102486.03;6160278;23;20060;-75
2023/02/10 09:01:43;;;;;;;0.10;0.10;;;;;;;7.31;67.81;102495.22;6160300;23;20036;-76
2023/02/10 09:04:10;;;;;;;0.00;0.00;;;;;;;8.48;64.56;102491.16;6158731;23;20031;-76
2023/02/10 09:06:54;;;;;;;0.05;0.05;;;;;;;10.00;59.92;102490.03;6183740;23;20071;-76
2023/02/10 09:09:24;;;;;;;0.03;0.03;;;;;;;11.06;55.36;102505.31;6160437;23;20028;-76
2023/02/10 09:11:55;;;;;;;0.00;0.00;;;;;;;11.64;52.51;102509.81;6159307;23;20012;-76
2023/02/10 09:14:21;;;;;;;0.00;0.00;;;;;;;12.20;49.95;102499.03;6157668;23;20426;-76
2023/02/10 09:16:50;;;;;;;0.00;0.00;;;;;;;13.09;47.85;102510.41;6158200;23;20055;-75
2023/02/10 09:20:01;;;;;;;0.00;0.00;;;;;;;13.71;45.25;102490.09;6182046;23;20188;-75
2023/02/10 09:22:31;;;;;;;0.00;0.00;;;;;;;14.72;43.51;102530.44;6158398;23;20008;-77
2023/02/10 09:24:56;;;;;;;0.00;0.00;;;;;;;15.15;41.50;102520.81;6130895;23;20061;-76
2023/02/10 09:27:24;;;;;;;0.00;0.00;;;;;;;15.47;41.19;102527.75;6159723;23;20422;-75
2023/02/10 09:29:49;;;;;;;0.00;0.00;;;;;;;15.50;40.24;102528.06;6159545;23;20017;-76
2023/02/10 09:32:15;;;;;;;0.00;0.00;;;;;;;15.59;40.22;102527.69;6155932;23;20015;-76
2023/02/10 09:34:41;;;;;;;0.00;0.00;;;;;;;15.66;40.06;102526.44;6189831;23;20041;-76
2023/02/10 09:37:09;;;;;;;0.00;0.00;;;;;;;15.07;39.90;102523.97;6136272;23;20009;-76
2023/02/10 09:39:38;;;;;;;0.00;0.00;;;;;;;14.65;40.77;102522.28;6164286;23;20016;-75
2023/02/10 09:42:22;;;;;;;0.00;0.00;;;;;;;14.31;41.01;102544.06;6135270;23;20005;-76
2023/02/10 09:44:55;;;;;;;0.00;0.00;;;;;;;13.40;42.49;102533.31;6187799;23;20012;-76
2023/02/10 09:48:00;;;;;;;;;;;;;;;;;;;;;
2023/02/10 09:50:54;;;;;;;0.05;0.05;;;;;;;12.11;44.78;102531.38;6180187;23;20056;-77
2023/02/10 09:53:32;;;;;;;0.00;0.00;;;;;;;11.76;45.82;102514.56;6197732;23;20001;-76
2023/02/10 09:56:03;;;;;;;0.00;0.00;;;;;;;11.50;46.45;102546.56;6190069;23;20008;-76
2023/02/10 09:58:56;;;;;;;0.08;0.08;;;;;;;11.05;47.02;102508.28;6164077;23;20047;-76
2023/02/10 10:01:29;;;;;;;0.10;0.10;;;;;;;11.34;47.11;102532.31;6115746;23;20013;-75
2023/02/10 10:04:05;;;;;;;0.00;0.00;;;;;;;11.58;46.20;102516.19;6184785;23;20033;-75
2023/02/10 10:07:13;;;;;;;0.00;0.00;;;;;;;12.02;45.68;102539.06;6186158;23;20005;-76
2023/02/10 10:09:56;;;;;;;0.00;0.00;;;;;;;12.66;45.21;102522.38;6146426;23;20017;-76
2023/02/10 10:12:23;;;;;;;0.00;0.00;;;;;;;12.79;43.83;102526.03;6188890;23;19989;-76
2023/02/10 10:15:10;;;;;;;0.00;0.00;;;;;;;13.28;43.40;102546.09;6159853;23;20013;-75
2023/02/10 10:17:59;;;;;;;0.00;0.00;;;;;;;14.27;41.84;102548.38;6165935;23;20039;-74
2023/02/10 10:21:06;;;;;;;0.00;0.00;;;;;;;15.52;40.67;102550.75;6162033;23;20019;-75
2023/02/10 10:24:04;;;;;;;0.00;0.00;;;;;;;17.27;36.92;102550.59;6154569;23;20001;-76
2023/02/10 10:26:30;;;;;;;0.00;0.00;;;;;;;17.94;35.25;102537.41;6157201;23;20302;-75
2023/02/10 10:29:01;;;;;;;0.00;0.00;;;;;;;18.69;33.75;102549.50;6184756;23;20420;-76
2023/02/10 10:31:36;;;;;;;0.00;0.00;;;;;;;19.48;32.69;102526.22;6158368;23;20013;-75
2023/02/10 10:34:30;;;;;;;0.00;0.00;;;;;;;20.08;30.89;102517.38;6154465;23;20062;-73
2023/02/10 10:36:58;;;;;;;0.00;0.00;;;;;;;21.33;29.48;102547.22;6161737;23;20024;-75
2023/02/10 10:39:40;;;;;;;0.00;0.00;;;;;;;22.35;27.85;102549.50;6186296;23;20001;-75
2023/02/10 10:42:32;;;;;;;0.00;0.00;;;;;;;22.42;26.71;102544.41;6158276;23;20032;-73
2023/02/10 10:45:04;;;;;;;0.00;0.00;;;;;;;23.22;25.89;102530.88;6132462;23;20378;-74
2023/02/10 10:47:45;;;;;;;0.00;0.00;;;;;;;23.63;25.29;102544.22;6183724;23;20024;-75
2023/02/10 10:50:26;;;;;;;0.00;0.00;;;;;;;23.87;25.38;102539.38;6161930;23;20067;-74
2023/02/10 10:52:54;;;;;;;0.00;0.00;;;;;;;24.55;24.91;102539.78;6184167;23;20149;-78
2023/02/10 10:55:32;;;;;;;0.00;0.00;;;;;;;25.27;23.71;102543.03;6188489;23;20012;-78
2023/02/10 10:58:05;;;;;;;0.00;0.00;;;;;;;25.96;23.12;102537.16;6161098;23;20012;-77
2023/02/10 11:00:33;;;;;;;0.00;0.00;;;;;;;26.69;22.07;102533.22;6192306;23;20066;-78
2023/02/10 11:03:05;;;;;;;0.00;0.00;;;;;;;27.28;21.74;102544.06;6192653;23;20075;-77
2023/02/10 11:08:42;;;;;;;0.00;0.00;;;;;;;29.52;18.98;102514.84;6074626;23;20006;-78
2023/02/10 11:11:36;;;;;;;0.00;0.00;;;;;;;30.75;19.23;102508.63;6166792;23;20005;-76
2023/02/10 11:14:35;;;;;;;0.00;0.00;;;;;;;32.04;17.63;102527.69;6152366;23;20005;-79
2023/02/10 11:17:34;;;;;;;0.00;0.00;;;;;;;33.16;17.97;102517.03;6152072;23;20013;-77
2023/02/10 11:23:17;;;;;;;0.00;0.00;;;;;;;34.11;15.30;102511.97;6190514;23;20396;-78
2023/02/10 11:26:06;;;;;;;0.00;0.00;;;;;;;33.76;15.54;102513.00;6187713;23;20001;-77
2023/02/10 11:28:35;;;;;;;0.00;0.00;;;;;;;34.49;15.40;102506.53;6163329;23;20048;-77
2023/02/10 11:31:24;;;;;;;0.00;0.00;;;;;;;34.75;14.56;102505.72;6187372;23;20009;-77
2023/02/10 11:34:18;;;;;;;0.00;0.00;;;;;;;35.79;14.71;102500.53;6163195;23;20012;-77
2023/02/10 11:36:44;;;;;;;0.00;0.00;;;;;;;35.44;14.04;102487.53;6191860;23;20024;-80
2023/02/10 11:39:33;;;;;;;0.00;0.00;;;;;;;32.76;15.56;102489.84;6166761;23;20031;-78
2023/02/10 11:42:25;;;;;;;0.00;0.00;;;;;;;32.27;16.29;102478.97;6190346;23;19997;-78
2023/02/10 11:45:27;;;;;;;0.00;0.00;;;;;;;33.89;14.96;102494.59;6165639;23;20452;-78
2023/02/10 11:48:23;;;;;;;0.00;0.00;;;;;;;33.31;15.43;102463.47;6191907;23;19997;-81
2023/02/10 11:51:22;;;;;;;0.00;0.00;;;;;;;32.73;15.80;102473.59;6166861;23;20024;-81
2023/02/10 11:53:48;;;;;;;0.00;0.00;;;;;;;32.89;15.57;102487.72;6165421;23;20083;-80
2023/02/10 11:59:47;;;;;;;0.00;0.00;;;;;;;31.22;16.79;102456.38;6190976;23;20012;-78
2023/02/10 12:02:27;;;;;;;0.00;0.00;;;;;;;31.10;17.18;102464.88;6170106;23;20013;-80
2023/02/10 12:05:07;;;;;;;0.00;0.00;;;;;;;31.47;16.25;102454.22;6194814;23;20075;-80
2023/02/10 12:08:03;;;;;;;0.00;0.00;;;;;;;31.59;16.72;102466.69;6196442;23;20011;-80
2023/02/10 12:10:47;;;;;;;0.00;0.00;;;;;;;31.10;16.39;102454.41;6194468;23;19997;-81
2023/02/10 12:13:29;;;;;;;0.00;0.00;;;;;;;31.27;17.35;102444.78;6164861;23;20009;-80
2023/02/10 12:16:09;;;;;;;0.00;0.00;;;;;;;32.26;17.04;102451.88;6168545;23;20001;-81
2023/02/10 12:19:20;;;;;;;0.00;0.00;;;;;;;33.35;16.03;102453.03;6191241;23;20505;-83
2023/02/10 12:22:07;;;;;;;0.00;0.00;;;;;;;32.43;15.33;102459.13;6164857;23;20001;-77
2023/02/10 12:24:45;;;;;;;0.00;0.00;;;;;;;31.36;16.82;102443.81;6169655;23;20001;-77
2023/02/10 12:27:50;;;;;;;0.00;0.00;;;;;;;31.17;16.79;102417.06;6163132;23;20081;-79
2023/02/10 12:31:37;;;;;;;0.00;0.00;;;;;;;31.23;16.79;102431.75;6165179;23;19981;-77
2023/02/10 12:34:17;;;;;;;0.00;0.00;;;;;;;31.21;16.70;102429.28;6173309;23;20016;-79
2023/02/10 12:37:25;;;;;;;0.00;0.00;;;;;;;30.69;17.11;102433.78;6165800;23;20009;-79
2023/02/10 12:40:23;;;;;;;0.00;0.00;;;;;;;30.05;17.96;102413.63;6166146;23;20067;-80
2023/02/10 12:42:55;;;;;;;0.00;0.00;;;;;;;28.77;19.23;102433.13;6164970;23;20044;-78
2023/02/10 12:45:28;;;;;;;0.00;0.00;;;;;;;28.18;20.01;102434.81;6194008;23;19993;-79
2023/02/10 12:48:25;;;;;;;0.00;0.00;;;;;;;28.50;19.80;102409.97;6166377;23;20008;-79
2023/02/10 12:50:54;;;;;;;0.00;0.00;;;;;;;29.17;18.70;102418.56;6160258;23;20124;-79
2023/02/10 12:53:36;;;;;;;0.00;0.00;;;;;;;29.09;19.40;102420.28;6163596;23;20079;-82
2023/02/10 12:56:19;;;;;;;0.00;0.00;;;;;;;29.40;19.08;102405.75;6159922;23;20012;-81
2023/02/10 12:58:52;;;;;;;0.00;0.00;;;;;;;29.66;18.94;102413.09;6163808;23;20040;-79
2023/02/10 13:01:50;;;;;;;0.00;0.00;;;;;;;30.20;18.21;102414.91;6188567;23;20012;-80
2023/02/10 13:04:42;;;;;;;;;;;;;;;;;;;;;
2023/02/10 13:07:44;;;;;;;0.00;0.00;;;;;;;30.36;18.67;102395.25;6190521;23;20029;-78
2023/02/10 13:10:31;;;;;;;0.00;0.00;;;;;;;30.34;17.95;102402.44;6160635;23;20003;-81
2023/02/10 13:13:04;;;;;;;0.00;0.00;;;;;;;29.46;19.08;102397.88;6165797;23;20113;-81
2023/02/10 13:15:45;;;;;;;0.00;0.00;;;;;;;28.99;19.96;102418.72;6188455;23;20088;-80
2023/02/10 13:18:32;;;;;;;0.00;0.00;;;;;;;29.37;19.72;102409.25;6169981;23;19997;-80
2023/02/10 13:21:06;;;;;;;0.00;0.00;;;;;;;29.71;19.02;102410.03;6173972;23;20029;-80
2023/02/10 13:23:57;;;;;;;0.00;0.00;;;;;;;29.32;19.28;102401.03;6166840;23;20009;-81
2023/02/10 13:26:29;;;;;;;0.00;0.00;;;;;;;27.79;20.71;102401.06;6166905;23;20024;-82
2023/02/10 13:29:18;;;;;;;0.00;0.00;;;;;;;26.47;21.99;102385.44;6163489;23;20013;-81
2023/02/10 13:31:49;;;;;;;0.00;0.00;;;;;;;24.43;24.17;102377.31;6163109;23;20005;-83
2023/02/10 13:34:33;;;;;;;0.00;0.00;;;;;;;22.74;27.00;102356.91;6162126;23;20036;-81
2023/02/10 13:37:19;;;;;;;0.00;0.00;;;;;;;24.32;25.28;102371.09;6162092;23;20406;-81